sensor_id;sensor_type;location;lat;lon;timestamp;temperature;humidity
15967;DHT22;15175;48.154;11.534;2023-03-01T00:02:14;2.20;99.90
15967;DHT22;15175;48.154;11.534;2023-03-01T00:04:41;2.20;99.90
15967;DHT22;15175;48.154;11.534;2023-03-01T00:07:08;2.30;99.90
15967;DHT22;15175;48.154;11.534;2023-03-01T00:09:36;2.30;99.90
15967;DHT22;15175;48.154;11.534;2023-03-01T00:12:04;2.30;99.90
15967;DHT22;15175;48.154;11.534;2023-03-01T00:14:33;2.30;99.90
15967;DHT22;15175;48.154;11.534;2023-03-01T00:17:00;2.30;99.90
15967;DHT22;15175;48.154;11.534;2023-03-01T00:19:27;2.30;99.90
15967;DHT22;15175;48.154;11.534;2023-03-01T00:21:54;2.30;99.90
15967;DHT22;15175;48.154;11.534;2023-03-01T00:24:21;2.30;99.90
15967;DHT22;15175;48.154;11.534;2023-03-01T00:26:48;2.30;99.90
15967;DHT22;15175;48.154;11.534;2023-03-01T00:29:19;2.30;99.90
15967;DHT22;15175;48.154;11.534;2023-03-01T00:31:48;2.20;99.90
15967;DHT22;15175;48.154;11.534;2023-03-01T00:34:15;2.30;99.90
15967;DHT22;15175;48.154;11.534;2023-03-01T00:36:42;2.30;99.90
15967;DHT22;15175;48.154;11.534;2023-03-01T00:39:12;2.30;99.90
15967;DHT22;15175;48.154;11.534;2023-03-01T00:41:40;2.30;99.90
15967;DHT22;15175;48.154;11.534;2023-03-01T00:44:08;2.30;99.90
15967;DHT22;15175;48.154;11.534;2023-03-01T00:46:35;2.30;99.90
15967;DHT22;15175;48.154;11.534;2023-03-01T00:49:05;2.30;99.90
15967;DHT22;15175;48.154;11.534;2023-03-01T00:51:32;2.20;99.90
15967;DHT22;15175;48.154;11.534;2023-03-01T00:54:01;2.20;99.90
15967;DHT22;15175;48.154;11.534;2023-03-01T00:56:29;2.20;99.90
15967;DHT22;15175;48.154;11.534;2023-03-01T00:58:56;2.30;99.90
15967;DHT22;15175;48.154;11.534;2023-03-01T01:01:24;2.30;99.90
15967;DHT22;15175;48.154;11.534;2023-03-01T01:03:55;2.30;99.90
15967;DHT22;15175;48.154;11.534;2023-03-01T01:06:25;2.20;99.90
15967;DHT22;15175;48.154;11.534;2023-03-01T01:08:54;2.30;99.90
15967;DHT22;15175;48.154;11.534;2023-03-01T01:11:23;2.20;99.90
15967;DHT22;15175;48.154;11.534;2023-03-01T01:13:50;2.20;99.90
15967;DHT22;15175;48.154;11.534;2023-03-01T01:16:19;2.20;99.90
15967;DHT22;15175;48.154;11.534;2023-03-01T01:18:46;2.30;99.90
15967;DHT22;15175;48.154;11.534;2023-03-01T01:21:16;2.20;99.90
15967;DHT22;15175;48.154;11.534;2023-03-01T01:23:45;2.20;99.90
15967;DHT22;15175;48.154;11.534;2023-03-01T01:26:15;2.20;99.90
15967;DHT22;15175;48.154;11.534;2023-03-01T01:28:42;2.20;99.90
15967;DHT22;15175;48.154;11.534;2023-03-01T01:31:10;2.20;99.90
15967;DHT22;15175;48.154;11.534;2023-03-01T01:33:37;2.10;99.90
15967;DHT22;15175;48.154;11.534;2023-03-01T01:36:05;2.40;99.90
15967;DHT22;15175;48.154;11.534;2023-03-01T01:38:33;2.10;99.90
15967;DHT22;15175;48.154;11.534;2023-03-01T01:41:01;2.10;99.90
15967;DHT22;15175;48.154;11.534;2023-03-01T01:43:30;2.10;99.90
15967;DHT22;15175;48.154;11.534;2023-03-01T01:45:59;2.10;99.90
15967;DHT22;15175;48.154;11.534;2023-03-01T01:48:32;2.10;99.90
15967;DHT22;15175;48.154;11.534;2023-03-01T01:51:09;2.10;99.90
15967;DHT22;15175;48.154;11.534;2023-03-01T01:53:39;2.00;99.90
15967;DHT22;15175;48.154;11.534;2023-03-01T01:56:09;2.20;99.90
15967;DHT22;15175;48.154;11.534;2023-03-01T01:58:38;2.00;99.90
15967;DHT22;15175;48.154;11.534;2023-03-01T02:01:07;2.00;99.90
15967;DHT22;15175;48.154;11.534;2023-03-01T02:03:37;2.00;99.90
15967;DHT22;15175;48.154;11.534;2023-03-01T02:06:16;2.00;99.90
15967;DHT22;15175;48.154;11.534;2023-03-01T02:08:44;2.00;99.90
15967;DHT22;15175;48.154;11.534;2023-03-01T02:11:14;2.00;99.90
15967;DHT22;15175;48.154;11.534;2023-03-01T02:13:42;2.00;99.90
15967;DHT22;15175;48.154;11.534;2023-03-01T02:16:10;1.90;99.90
15967;DHT22;15175;48.154;11.534;2023-03-01T02:18:38;1.90;99.90
15967;DHT22;15175;48.154;11.534;2023-03-01T02:21:15;1.90;99.90
15967;DHT22;15175;48.154;11.534;2023-03-01T02:23:44;1.90;99.90
15967;DHT22;15175;48.154;11.534;2023-03-01T02:26:19;1.80;99.90
15967;DHT22;15175;48.154;11.534;2023-03-01T02:28:48;1.90;99.90
15967;DHT22;15175;48.154;11.534;2023-03-01T02:31:19;1.90;99.90
15967;DHT22;15175;48.154;11.534;2023-03-01T02:34:05;1.90;99.90
15967;DHT22;15175;48.154;11.534;2023-03-01T02:36:35;1.90;99.90
15967;DHT22;15175;48.154;11.534;2023-03-01T02:39:06;1.90;99.90
15967;DHT22;15175;48.154;11.534;2023-03-01T02:41:35;1.90;99.90
15967;DHT22;15175;48.154;11.534;2023-03-01T02:44:05;1.90;99.90
15967;DHT22;15175;48.154;11.534;2023-03-01T02:46:32;1.90;99.90
15967;DHT22;15175;48.154;11.534;2023-03-01T02:49:00;2.00;99.90
15967;DHT22;15175;48.154;11.534;2023-03-01T02:51:44;2.00;99.90
15967;DHT22;15175;48.154;11.534;2023-03-01T02:54:18;2.10;99.90
15967;DHT22;15175;48.154;11.534;2023-03-01T02:56:48;2.10;99.90
15967;DHT22;15175;48.154;11.534;2023-03-01T02:59:21;2.10;99.90
15967;DHT22;15175;48.154;11.534;2023-03-01T03:01:49;2.10;99.90
15967;DHT22;15175;48.154;11.534;2023-03-01T03:04:18;2.00;99.90
15967;DHT22;15175;48.154;11.534;2023-03-01T03:06:50;2.00;99.90
15967;DHT22;15175;48.154;11.534;2023-03-01T03:09:18;2.00;99.90
15967;DHT22;15175;48.154;11.534;2023-03-01T03:11:46;1.90;99.90
15967;DHT22;15175;48.154;11.534;2023-03-01T03:14:15;2.00;99.90
15967;DHT22;15175;48.154;11.534;2023-03-01T03:16:49;1.90;99.90
15967;DHT22;15175;48.154;11.534;2023-03-01T03:19:17;1.90;99.90
15967;DHT22;15175;48.154;11.534;2023-03-01T03:21:45;1.90;99.90
15967;DHT22;15175;48.154;11.534;2023-03-01T03:24:13;1.90;99.90
15967;DHT22;15175;48.154;11.534;2023-03-01T03:26:40;1.90;99.90
15967;DHT22;15175;48.154;11.534;2023-03-01T03:29:07;1.90;99.90
15967;DHT22;15175;48.154;11.534;2023-03-01T03:31:34;2.10;99.90
15967;DHT22;15175;48.154;11.534;2023-03-01T03:34:03;1.70;99.90
15967;DHT22;15175;48.154;11.534;2023-03-01T03:36:30;1.80;99.90
15967;DHT22;15175;48.154;11.534;2023-03-01T03:38:57;1.80;99.90
15967;DHT22;15175;48.154;11.534;2023-03-01T03:41:24;1.80;99.90
15967;DHT22;15175;48.154;11.534;2023-03-01T03:43:52;1.80;99.90
15967;DHT22;15175;48.154;11.534;2023-03-01T03:46:19;1.70;99.90
15967;DHT22;15175;48.154;11.534;2023-03-01T03:48:46;1.70;99.90
15967;DHT22;15175;48.154;11.534;2023-03-01T03:51:16;1.70;99.90
15967;DHT22;15175;48.154;11.534;2023-03-01T03:53:44;1.60;99.90
15967;DHT22;15175;48.154;11.534;2023-03-01T03:56:12;1.70;99.90
15967;DHT22;15175;48.154;11.534;2023-03-01T03:58:39;1.60;99.90
15967;DHT22;15175;48.154;11.534;2023-03-01T04:01:06;1.60;99.90
15967;DHT22;15175;48.154;11.534;2023-03-01T04:03:33;1.60;99.90
15967;DHT22;15175;48.154;11.534;2023-03-01T04:06:01;1.50;99.90
15967;DHT22;15175;48.154;11.534;2023-03-01T04:08:31;1.50;99.90
15967;DHT22;15175;48.154;11.534;2023-03-01T04:11:00;1.60;99.90
15967;DHT22;15175;48.154;11.534;2023-03-01T04:13:49;1.60;99.90
15967;DHT22;15175;48.154;11.534;2023-03-01T04:16:16;1.50;99.90
15967;DHT22;15175;48.154;11.534;2023-03-01T04:18:44;1.50;99.90
15967;DHT22;15175;48.154;11.534;2023-03-01T04:21:11;1.50;99.90
15967;DHT22;15175;48.154;11.534;2023-03-01T04:23:40;1.50;99.90
15967;DHT22;15175;48.154;11.534;2023-03-01T04:26:09;1.50;99.90
15967;DHT22;15175;48.154;11.534;2023-03-01T04:28:37;1.50;99.90
15967;DHT22;15175;48.154;11.534;2023-03-01T04:31:07;1.50;99.90
15967;DHT22;15175;48.154;11.534;2023-03-01T04:33:40;1.50;99.90
15967;DHT22;15175;48.154;11.534;2023-03-01T04:36:10;1.40;99.90
15967;DHT22;15175;48.154;11.534;2023-03-01T04:38:37;1.50;99.90
15967;DHT22;15175;48.154;11.534;2023-03-01T04:41:07;1.40;99.90
15967;DHT22;15175;48.154;11.534;2023-03-01T04:43:36;1.30;99.90
15967;DHT22;15175;48.154;11.534;2023-03-01T04:46:05;1.30;99.90
15967;DHT22;15175;48.154;11.534;2023-03-01T04:48:34;1.30;99.90
15967;DHT22;15175;48.154;11.534;2023-03-01T04:51:02;1.40;99.90
15967;DHT22;15175;48.154;11.534;2023-03-01T04:53:30;1.20;99.90
15967;DHT22;15175;48.154;11.534;2023-03-01T04:55:58;1.20;99.90
15967;DHT22;15175;48.154;11.534;2023-03-01T04:58:27;1.20;99.90
15967;DHT22;15175;48.154;11.534;2023-03-01T05:00:55;1.20;99.90
15967;DHT22;15175;48.154;11.534;2023-03-01T05:03:23;1.20;99.90
15967;DHT22;15175;48.154;11.534;2023-03-01T05:05:51;1.20;99.90
15967;DHT22;15175;48.154;11.534;2023-03-01T05:08:19;1.10;99.90
15967;DHT22;15175;48.154;11.534;2023-03-01T05:10:48;1.10;99.90
15967;DHT22;15175;48.154;11.534;2023-03-01T05:13:16;1.10;99.90
15967;DHT22;15175;48.154;11.534;2023-03-01T05:15:48;1.00;99.90
15967;DHT22;15175;48.154;11.534;2023-03-01T05:18:16;1.00;99.90
15967;DHT22;15175;48.154;11.534;2023-03-01T05:20:43;1.00;99.90
15967;DHT22;15175;48.154;11.534;2023-03-01T05:23:11;1.00;99.90
15967;DHT22;15175;48.154;11.534;2023-03-01T05:25:39;0.90;99.90
15967;DHT22;15175;48.154;11.534;2023-03-01T05:28:11;0.80;99.90
15967;DHT22;15175;48.154;11.534;2023-03-01T05:30:38;0.90;99.90
15967;DHT22;15175;48.154;11.534;2023-03-01T05:33:08;0.80;99.90
15967;DHT22;15175;48.154;11.534;2023-03-01T05:35:39;0.90;99.90
15967;DHT22;15175;48.154;11.534;2023-03-01T05:38:08;0.80;99.90
15967;DHT22;15175;48.154;11.534;2023-03-01T05:40:39;0.70;99.90
15967;DHT22;15175;48.154;11.534;2023-03-01T05:43:06;0.80;99.90
15967;DHT22;15175;48.154;11.534;2023-03-01T05:45:36;1.00;99.90
15967;DHT22;15175;48.154;11.534;2023-03-01T05:48:04;0.90;99.90
15967;DHT22;15175;48.154;11.534;2023-03-01T05:50:34;0.80;99.90
15967;DHT22;15175;48.154;11.534;2023-03-01T05:53:04;0.80;99.90
15967;DHT22;15175;48.154;11.534;2023-03-01T05:55:34;0.80;99.90
15967;DHT22;15175;48.154;11.534;2023-03-01T05:58:04;0.80;99.90
15967;DHT22;15175;48.154;11.534;2023-03-01T06:00:32;0.80;99.90
15967;DHT22;15175;48.154;11.534;2023-03-01T06:03:00;0.80;99.90
15967;DHT22;15175;48.154;11.534;2023-03-01T06:05:28;0.80;99.90
15967;DHT22;15175;48.154;11.534;2023-03-01T06:07:58;0.80;99.90
15967;DHT22;15175;48.154;11.534;2023-03-01T06:10:26;0.80;99.90
15967;DHT22;15175;48.154;11.534;2023-03-01T06:12:53;0.80;99.90
15967;DHT22;15175;48.154;11.534;2023-03-01T06:15:21;0.60;99.90
15967;DHT22;15175;48.154;11.534;2023-03-01T06:17:49;0.70;99.90
15967;DHT22;15175;48.154;11.534;2023-03-01T06:20:18;0.70;99.90
15967;DHT22;15175;48.154;11.534;2023-03-01T06:22:46;0.60;99.90
15967;DHT22;15175;48.154;11.534;2023-03-01T06:25:17;0.60;99.90
15967;DHT22;15175;48.154;11.534;2023-03-01T06:27:45;0.60;99.90
15967;DHT22;15175;48.154;11.534;2023-03-01T06:30:14;0.80;99.90
15967;DHT22;15175;48.154;11.534;2023-03-01T06:32:41;0.60;99.90
15967;DHT22;15175;48.154;11.534;2023-03-01T06:35:09;0.60;99.90
15967;DHT22;15175;48.154;11.534;2023-03-01T06:37:37;0.60;99.90
15967;DHT22;15175;48.154;11.534;2023-03-01T06:40:06;0.60;99.90
15967;DHT22;15175;48.154;11.534;2023-03-01T06:42:35;0.60;99.90
15967;DHT22;15175;48.154;11.534;2023-03-01T06:45:03;0.50;99.90
15967;DHT22;15175;48.154;11.534;2023-03-01T06:47:31;0.50;99.90
15967;DHT22;15175;48.154;11.534;2023-03-01T06:49:58;0.60;99.90
15967;DHT22;15175;48.154;11.534;2023-03-01T06:52:26;0.60;99.90
15967;DHT22;15175;48.154;11.534;2023-03-01T06:54:53;0.60;99.90
15967;DHT22;15175;48.154;11.534;2023-03-01T06:57:20;0.60;99.90
15967;DHT22;15175;48.154;11.534;2023-03-01T06:59:48;0.60;99.90
15967;DHT22;15175;48.154;11.534;2023-03-01T07:02:16;0.60;99.90
15967;DHT22;15175;48.154;11.534;2023-03-01T07:04:43;0.70;99.90
15967;DHT22;15175;48.154;11.534;2023-03-01T07:07:11;0.70;99.90
15967;DHT22;15175;48.154;11.534;2023-03-01T07:09:38;0.60;99.90
15967;DHT22;15175;48.154;11.534;2023-03-01T07:12:06;0.60;99.90
15967;DHT22;15175;48.154;11.534;2023-03-01T07:14:33;0.60;99.90
15967;DHT22;15175;48.154;11.534;2023-03-01T07:17:02;0.60;99.90
15967;DHT22;15175;48.154;11.534;2023-03-01T07:19:29;0.60;99.90
15967;DHT22;15175;48.154;11.534;2023-03-01T07:21:56;0.60;99.90
15967;DHT22;15175;48.154;11.534;2023-03-01T07:24:23;0.60;99.90
15967;DHT22;15175;48.154;11.534;2023-03-01T07:26:51;0.60;99.90
15967;DHT22;15175;48.154;11.534;2023-03-01T07:29:19;0.60;99.90
15967;DHT22;15175;48.154;11.534;2023-03-01T07:31:46;0.60;99.90
15967;DHT22;15175;48.154;11.534;2023-03-01T07:34:14;0.60;99.90
15967;DHT22;15175;48.154;11.534;2023-03-01T07:36:42;0.60;99.90
15967;DHT22;15175;48.154;11.534;2023-03-01T07:39:11;0.70;99.90
15967;DHT22;15175;48.154;11.534;2023-03-01T07:41:38;0.70;99.90
15967;DHT22;15175;48.154;11.534;2023-03-01T07:44:05;0.80;99.90
15967;DHT22;15175;48.154;11.534;2023-03-01T07:46:33;0.90;99.90
15967;DHT22;15175;48.154;11.534;2023-03-01T07:49:00;0.90;99.90
15967;DHT22;15175;48.154;11.534;2023-03-01T07:51:28;0.90;99.90
15967;DHT22;15175;48.154;11.534;2023-03-01T07:53:55;0.90;99.90
15967;DHT22;15175;48.154;11.534;2023-03-01T07:56:22;0.90;99.90
15967;DHT22;15175;48.154;11.534;2023-03-01T07:58:49;0.90;99.90
15967;DHT22;15175;48.154;11.534;2023-03-01T08:01:19;1.00;99.90
15967;DHT22;15175;48.154;11.534;2023-03-01T08:03:47;1.00;99.90
15967;DHT22;15175;48.154;11.534;2023-03-01T08:06:15;1.10;99.90
15967;DHT22;15175;48.154;11.534;2023-03-01T08:08:44;1.10;99.90
15967;DHT22;15175;48.154;11.534;2023-03-01T08:11:13;1.00;99.90
15967;DHT22;15175;48.154;11.534;2023-03-01T08:13:41;1.00;99.90
15967;DHT22;15175;48.154;11.534;2023-03-01T08:16:10;1.00;99.90
15967;DHT22;15175;48.154;11.534;2023-03-01T08:18:38;1.00;99.90
15967;DHT22;15175;48.154;11.534;2023-03-01T08:21:07;1.10;99.90
15967;DHT22;15175;48.154;11.534;2023-03-01T08:23:34;1.10;99.90
15967;DHT22;15175;48.154;11.534;2023-03-01T08:26:08;1.10;99.90
15967;DHT22;15175;48.154;11.534;2023-03-01T08:28:36;1.20;99.90
15967;DHT22;15175;48.154;11.534;2023-03-01T08:31:12;1.30;99.90
15967;DHT22;15175;48.154;11.534;2023-03-01T08:33:39;1.30;99.90
15967;DHT22;15175;48.154;11.534;2023-03-01T08:36:07;1.30;99.90
15967;DHT22;15175;48.154;11.534;2023-03-01T08:38:34;1.40;99.90
15967;DHT22;15175;48.154;11.534;2023-03-01T08:41:02;1.40;99.90
15967;DHT22;15175;48.154;11.534;2023-03-01T08:43:31;1.20;99.90
15967;DHT22;15175;48.154;11.534;2023-03-01T08:45:58;1.10;99.90
15967;DHT22;15175;48.154;11.534;2023-03-01T08:48:27;1.20;99.90
15967;DHT22;15175;48.154;11.534;2023-03-01T08:50:54;1.30;99.90
15967;DHT22;15175;48.154;11.534;2023-03-01T08:53:22;1.20;99.90
15967;DHT22;15175;48.154;11.534;2023-03-01T08:55:49;1.30;99.90
15967;DHT22;15175;48.154;11.534;2023-03-01T08:58:16;1.30;99.90
15967;DHT22;15175;48.154;11.534;2023-03-01T09:00:44;1.30;99.90
15967;DHT22;15175;48.154;11.534;2023-03-01T09:03:12;1.30;99.90
15967;DHT22;15175;48.154;11.534;2023-03-01T09:05:39;1.30;99.90
15967;DHT22;15175;48.154;11.534;2023-03-01T09:08:06;1.40;99.90
15967;DHT22;15175;48.154;11.534;2023-03-01T09:10:37;1.50;99.90
15967;DHT22;15175;48.154;11.534;2023-03-01T09:13:05;1.50;99.90
15967;DHT22;15175;48.154;11.534;2023-03-01T09:15:32;1.60;99.90
15967;DHT22;15175;48.154;11.534;2023-03-01T09:18:01;1.60;99.90
15967;DHT22;15175;48.154;11.534;2023-03-01T09:20:28;1.60;99.90
15967;DHT22;15175;48.154;11.534;2023-03-01T09:22:56;1.60;99.90
15967;DHT22;15175;48.154;11.534;2023-03-01T09:25:24;1.80;99.90
15967;DHT22;15175;48.154;11.534;2023-03-01T09:27:51;1.70;99.90
15967;DHT22;15175;48.154;11.534;2023-03-01T09:30:18;1.70;99.90
15967;DHT22;15175;48.154;11.534;2023-03-01T09:32:46;1.70;99.90
15967;DHT22;15175;48.154;11.534;2023-03-01T09:35:15;1.70;99.90
15967;DHT22;15175;48.154;11.534;2023-03-01T09:37:42;1.70;99.90
15967;DHT22;15175;48.154;11.534;2023-03-01T09:40:14;1.70;99.90
15967;DHT22;15175;48.154;11.534;2023-03-01T09:42:48;1.80;99.90
15967;DHT22;15175;48.154;11.534;2023-03-01T09:45:26;1.90;99.90
15967;DHT22;15175;48.154;11.534;2023-03-01T09:47:54;1.90;99.90
15967;DHT22;15175;48.154;11.534;2023-03-01T09:50:27;1.90;99.90
15967;DHT22;15175;48.154;11.534;2023-03-01T09:53:00;1.90;99.90
15967;DHT22;15175;48.154;11.534;2023-03-01T09:55:31;2.00;99.90
15967;DHT22;15175;48.154;11.534;2023-03-01T09:58:06;2.10;99.90
15967;DHT22;15175;48.154;11.534;2023-03-01T10:00:44;2.30;99.90
15967;DHT22;15175;48.154;11.534;2023-03-01T10:03:17;2.20;99.90
15967;DHT22;15175;48.154;11.534;2023-03-01T10:06:03;2.30;99.90
15967;DHT22;15175;48.154;11.534;2023-03-01T10:08:35;2.20;99.90
15967;DHT22;15175;48.154;11.534;2023-03-01T10:11:19;2.30;99.90
15967;DHT22;15175;48.154;11.534;2023-03-01T10:13:50;2.30;99.90
15967;DHT22;15175;48.154;11.534;2023-03-01T10:16:23;2.30;99.90
15967;DHT22;15175;48.154;11.534;2023-03-01T10:18:56;2.20;99.90
15967;DHT22;15175;48.154;11.534;2023-03-01T10:21:28;2.10;99.90
15967;DHT22;15175;48.154;11.534;2023-03-01T10:24:01;2.10;99.90
15967;DHT22;15175;48.154;11.534;2023-03-01T10:26:51;2.20;99.90
15967;DHT22;15175;48.154;11.534;2023-03-01T10:29:23;2.20;99.90
15967;DHT22;15175;48.154;11.534;2023-03-01T10:31:53;2.20;99.90
15967;DHT22;15175;48.154;11.534;2023-03-01T10:34:26;2.30;99.90
15967;DHT22;15175;48.154;11.534;2023-03-01T10:36:57;2.40;99.90
15967;DHT22;15175;48.154;11.534;2023-03-01T10:39:26;2.60;99.90
15967;DHT22;15175;48.154;11.534;2023-03-01T10:41:58;2.70;99.90
15967;DHT22;15175;48.154;11.534;2023-03-01T10:44:41;2.70;99.90
15967;DHT22;15175;48.154;11.534;2023-03-01T10:47:14;2.80;99.90
15967;DHT22;15175;48.154;11.534;2023-03-01T10:49:53;2.70;99.90
15967;DHT22;15175;48.154;11.534;2023-03-01T10:52:24;2.60;99.90
15967;DHT22;15175;48.154;11.534;2023-03-01T10:54:54;2.60;99.90
15967;DHT22;15175;48.154;11.534;2023-03-01T10:57:34;2.40;99.90
15967;DHT22;15175;48.154;11.534;2023-03-01T11:00:20;2.50;99.90
15967;DHT22;15175;48.154;11.534;2023-03-01T11:02:50;2.60;99.90
15967;DHT22;15175;48.154;11.534;2023-03-01T11:05:21;2.60;99.90
15967;DHT22;15175;48.154;11.534;2023-03-01T11:07:52;2.70;99.90
15967;DHT22;15175;48.154;11.534;2023-03-01T11:10:22;2.80;99.90
15967;DHT22;15175;48.154;11.534;2023-03-01T11:12:51;3.00;99.90
15967;DHT22;15175;48.154;11.534;2023-03-01T11:15:26;2.70;99.90
15967;DHT22;15175;48.154;11.534;2023-03-01T11:17:54;2.70;99.90
15967;DHT22;15175;48.154;11.534;2023-03-01T11:20:27;2.80;99.90
15967;DHT22;15175;48.154;11.534;2023-03-01T11:23:01;2.90;99.90
15967;DHT22;15175;48.154;11.534;2023-03-01T11:25:33;3.00;99.90
15967;DHT22;15175;48.154;11.534;2023-03-01T11:28:04;3.10;99.90
15967;DHT22;15175;48.154;11.534;2023-03-01T11:30:34;3.20;99.90
15967;DHT22;15175;48.154;11.534;2023-03-01T11:33:15;3.30;99.90
15967;DHT22;15175;48.154;11.534;2023-03-01T11:35:49;3.40;99.90
15967;DHT22;15175;48.154;11.534;2023-03-01T11:38:23;3.50;99.90
15967;DHT22;15175;48.154;11.534;2023-03-01T11:40:57;3.60;99.90
15967;DHT22;15175;48.154;11.534;2023-03-01T11:43:35;3.70;99.90
15967;DHT22;15175;48.154;11.534;2023-03-01T11:49:14;3.90;99.90
15967;DHT22;15175;48.154;11.534;2023-03-01T11:51:49;3.90;99.90
15967;DHT22;15175;48.154;11.534;2023-03-01T11:54:28;3.90;99.90
15967;DHT22;15175;48.154;11.534;2023-03-01T11:57:04;3.90;99.90
15967;DHT22;15175;48.154;11.534;2023-03-01T12:00:00;4.00;99.90
15967;DHT22;15175;48.154;11.534;2023-03-01T12:05:52;4.10;99.90
15967;DHT22;15175;48.154;11.534;2023-03-01T12:08:33;4.20;99.90
15967;DHT22;15175;48.154;11.534;2023-03-01T12:11:12;4.30;99.90
15967;DHT22;15175;48.154;11.534;2023-03-01T12:14:09;4.30;99.90
15967;DHT22;15175;48.154;11.534;2023-03-01T12:19:50;4.60;99.90
15967;DHT22;15175;48.154;11.534;2023-03-01T12:22:30;4.70;99.90
15967;DHT22;15175;48.154;11.534;2023-03-01T12:25:21;4.70;99.90
15967;DHT22;15175;48.154;11.534;2023-03-01T12:28:04;4.80;99.90
15967;DHT22;15175;48.154;11.534;2023-03-01T12:30:45;4.80;99.90
15967;DHT22;15175;48.154;11.534;2023-03-01T12:33:22;5.00;99.90
15967;DHT22;15175;48.154;11.534;2023-03-01T12:36:15;5.10;99.90
15967;DHT22;15175;48.154;11.534;2023-03-01T12:38:49;5.30;99.90
15967;DHT22;15175;48.154;11.534;2023-03-01T12:44:37;5.40;99.90
15967;DHT22;15175;48.154;11.534;2023-03-01T12:47:20;5.50;99.90
15967;DHT22;15175;48.154;11.534;2023-03-01T12:49:54;5.70;99.90
15967;DHT22;15175;48.154;11.534;2023-03-01T12:52:27;5.70;99.90
15967;DHT22;15175;48.154;11.534;2023-03-01T12:54:57;5.80;99.90
15967;DHT22;15175;48.154;11.534;2023-03-01T12:57:31;5.90;99.90
15967;DHT22;15175;48.154;11.534;2023-03-01T13:00:17;5.90;99.90
15967;DHT22;15175;48.154;11.534;2023-03-01T13:02:53;6.00;99.90
15967;DHT22;15175;48.154;11.534;2023-03-01T13:05:33;6.00;99.90
15967;DHT22;15175;48.154;11.534;2023-03-01T13:08:07;6.10;99.90
15967;DHT22;15175;48.154;11.534;2023-03-01T13:10:43;6.20;99.90
15967;DHT22;15175;48.154;11.534;2023-03-01T13:13:18;6.20;99.90
15967;DHT22;15175;48.154;11.534;2023-03-01T13:15:48;6.20;99.90
15967;DHT22;15175;48.154;11.534;2023-03-01T13:18:31;6.20;99.90
15967;DHT22;15175;48.154;11.534;2023-03-01T13:21:00;6.10;99.90
15967;DHT22;15175;48.154;11.534;2023-03-01T13:23:30;6.10;99.90
15967;DHT22;15175;48.154;11.534;2023-03-01T13:26:13;6.20;99.90
15967;DHT22;15175;48.154;11.534;2023-03-01T13:28:57;6.30;99.90
15967;DHT22;15175;48.154;11.534;2023-03-01T13:32:00;6.30;99.90
15967;DHT22;15175;48.154;11.534;2023-03-01T13:34:44;6.30;99.90
15967;DHT22;15175;48.154;11.534;2023-03-01T13:37:28;6.30;99.90
15967;DHT22;15175;48.154;11.534;2023-03-01T13:40:02;6.40;99.90
15967;DHT22;15175;48.154;11.534;2023-03-01T13:42:40;6.50;99.90
15967;DHT22;15175;48.154;11.534;2023-03-01T13:45:35;6.70;99.90
15967;DHT22;15175;48.154;11.534;2023-03-01T13:48:09;6.70;99.90
15967;DHT22;15175;48.154;11.534;2023-03-01T13:50:45;6.90;99.90
15967;DHT22;15175;48.154;11.534;2023-03-01T13:53:17;6.90;99.90
15967;DHT22;15175;48.154;11.534;2023-03-01T13:55:47;6.90;99.90
15967;DHT22;15175;48.154;11.534;2023-03-01T13:58:21;6.90;99.90
15967;DHT22;15175;48.154;11.534;2023-03-01T14:00:56;6.90;99.90
15967;DHT22;15175;48.154;11.534;2023-03-01T14:03:25;6.90;99.90
15967;DHT22;15175;48.154;11.534;2023-03-01T14:06:01;6.90;99.90
15967;DHT22;15175;48.154;11.534;2023-03-01T14:08:30;7.00;99.90
15967;DHT22;15175;48.154;11.534;2023-03-01T14:11:34;7.00;99.90
15967;DHT22;15175;48.154;11.534;2023-03-01T14:16:58;6.90;99.90
15967;DHT22;15175;48.154;11.534;2023-03-01T14:19:29;6.90;99.90
15967;DHT22;15175;48.154;11.534;2023-03-01T14:22:12;6.90;99.90
15967;DHT22;15175;48.154;11.534;2023-03-01T14:24:46;6.80;99.90
15967;DHT22;15175;48.154;11.534;2023-03-01T14:27:15;6.80;99.90
15967;DHT22;15175;48.154;11.534;2023-03-01T14:29:43;6.80;99.90
15967;DHT22;15175;48.154;11.534;2023-03-01T14:32:12;6.80;99.90
15967;DHT22;15175;48.154;11.534;2023-03-01T14:34:45;6.80;99.90
15967;DHT22;15175;48.154;11.534;2023-03-01T14:37:19;6.70;99.90
15967;DHT22;15175;48.154;11.534;2023-03-01T14:39:48;6.70;99.90
15967;DHT22;15175;48.154;11.534;2023-03-01T14:42:16;6.70;99.90
15967;DHT22;15175;48.154;11.534;2023-03-01T14:44:46;6.70;99.90
15967;DHT22;15175;48.154;11.534;2023-03-01T14:47:15;6.70;99.90
15967;DHT22;15175;48.154;11.534;2023-03-01T14:49:53;6.70;99.90
15967;DHT22;15175;48.154;11.534;2023-03-01T14:52:25;6.80;99.90
15967;DHT22;15175;48.154;11.534;2023-03-01T14:54:55;6.80;99.90
15967;DHT22;15175;48.154;11.534;2023-03-01T14:57:24;6.80;99.90
15967;DHT22;15175;48.154;11.534;2023-03-01T14:59:53;6.80;99.90
15967;DHT22;15175;48.154;11.534;2023-03-01T15:02:23;6.80;99.90
15967;DHT22;15175;48.154;11.534;2023-03-01T15:04:54;6.80;99.90
15967;DHT22;15175;48.154;11.534;2023-03-01T15:07:23;6.80;99.90
15967;DHT22;15175;48.154;11.534;2023-03-01T15:09:53;6.70;99.90
15967;DHT22;15175;48.154;11.534;2023-03-01T15:12:38;6.70;99.90
15967;DHT22;15175;48.154;11.534;2023-03-01T15:18:17;6.60;99.90
15967;DHT22;15175;48.154;11.534;2023-03-01T15:20:47;6.50;99.90
15967;DHT22;15175;48.154;11.534;2023-03-01T15:23:21;6.50;99.90
15967;DHT22;15175;48.154;11.534;2023-03-01T15:25:49;6.50;99.90
15967;DHT22;15175;48.154;11.534;2023-03-01T15:28:24;6.50;99.90
15967;DHT22;15175;48.154;11.534;2023-03-01T15:30:57;6.60;99.90
15967;DHT22;15175;48.154;11.534;2023-03-01T15:33:36;6.60;99.90
15967;DHT22;15175;48.154;11.534;2023-03-01T15:36:30;6.70;99.90
15967;DHT22;15175;48.154;11.534;2023-03-01T15:38:59;6.70;99.90
15967;DHT22;15175;48.154;11.534;2023-03-01T15:41:28;6.60;99.90
15967;DHT22;15175;48.154;11.534;2023-03-01T15:43:58;6.70;99.90
15967;DHT22;15175;48.154;11.534;2023-03-01T15:46:28;6.70;99.90
15967;DHT22;15175;48.154;11.534;2023-03-01T15:48:59;6.60;99.90
15967;DHT22;15175;48.154;11.534;2023-03-01T15:51:31;6.70;99.90
15967;DHT22;15175;48.154;11.534;2023-03-01T15:54:04;6.70;99.90
15967;DHT22;15175;48.154;11.534;2023-03-01T15:56:32;6.70;99.90
15967;DHT22;15175;48.154;11.534;2023-03-01T15:59:00;6.70;99.90
15967;DHT22;15175;48.154;11.534;2023-03-01T16:01:29;6.70;99.90
15967;DHT22;15175;48.154;11.534;2023-03-01T16:03:56;6.60;99.90
15967;DHT22;15175;48.154;11.534;2023-03-01T16:06:24;6.60;99.90
15967;DHT22;15175;48.154;11.534;2023-03-01T16:08:52;6.60;99.90
15967;DHT22;15175;48.154;11.534;2023-03-01T16:11:21;6.60;99.90
15967;DHT22;15175;48.154;11.534;2023-03-01T16:13:48;6.70;99.90